createdAt,value
2022-09-20T00:00:07.730Z,80.89
2022-09-20T00:00:40.002Z,80.82
2022-09-20T00:01:15.249Z,80.87
2022-09-20T00:01:47.192Z,80.73
2022-09-20T00:02:19.205Z,80.65
2022-09-20T00:02:51.210Z,80.76
2022-09-20T00:03:23.071Z,80.63
2022-09-20T00:03:59.570Z,80.69
2022-09-20T00:04:31.511Z,80.92
2022-09-20T00:05:05.040Z,81.14
2022-09-20T00:05:38.853Z,81.16
2022-09-20T00:06:15.701Z,81.07
2022-09-20T00:06:47.875Z,81.01
2022-09-20T00:07:19.895Z,81.09
2022-09-20T00:07:51.779Z,81.20
2022-09-20T00:08:23.597Z,81.15
2022-09-20T00:08:56.694Z,80.82
2022-09-20T00:09:28.563Z,80.89
2022-09-20T00:10:00.458Z,80.82
2022-09-20T00:10:38.026Z,80.95
2022-09-20T00:11:15.475Z,80.72
2022-09-20T00:11:47.666Z,80.89
2022-09-20T00:12:19.528Z,80.35
2022-09-20T00:12:51.521Z,80.32
2022-09-20T00:13:23.374Z,80.08
2022-09-20T00:13:57.278Z,79.83
2022-09-20T00:14:29.134Z,80.04
2022-09-20T00:15:00.975Z,79.88
2022-09-20T00:15:34.225Z,79.45
2022-09-20T00:16:11.244Z,79.74
2022-09-20T00:16:43.386Z,79.92
2022-09-20T00:17:15.581Z,80.09
2022-09-20T00:17:47.613Z,79.92
2022-09-20T00:18:19.516Z,79.67
2022-09-20T00:18:53.580Z,79.66
2022-09-20T00:19:25.633Z,80.01
2022-09-20T00:19:57.736Z,80.14
2022-09-20T00:20:30.623Z,80.20
2022-09-20T00:21:03.453Z,80.58
2022-09-20T00:21:36.473Z,80.83
2022-09-20T00:22:08.373Z,80.78
2022-09-20T00:22:40.572Z,80.60
2022-09-20T00:23:12.476Z,80.56
2022-09-20T00:23:45.081Z,80.96
2022-09-20T00:24:17.216Z,80.84
2022-09-20T00:24:49.244Z,80.70
2022-09-20T00:25:22.516Z,80.62
2022-09-20T00:25:57.001Z,80.41
2022-09-20T00:26:30.705Z,80.33
2022-09-20T00:27:03.529Z,79.99
2022-09-20T00:27:35.371Z,79.81
2022-09-20T00:28:08.435Z,79.86
2022-09-20T00:28:41.581Z,79.98
2022-09-20T00:29:14.364Z,79.99
2022-09-20T00:29:46.240Z,80.32
2022-09-20T00:30:18.368Z,80.63
2022-09-20T00:30:52.054Z,80.31
2022-09-20T00:31:24.833Z,80.19
2022-09-20T00:31:56.800Z,80.20
2022-09-20T00:32:28.699Z,80.27
2022-09-20T00:33:00.914Z,80.35
2022-09-20T00:33:51.894Z,80.06
2022-09-20T00:34:42.658Z,80.06
2022-09-20T00:35:14.524Z,80.00
2022-09-20T00:35:47.341Z,80.38
2022-09-20T00:36:19.318Z,80.38
2022-09-20T00:36:51.153Z,80.07
2022-09-20T00:37:23.083Z,80.06
2022-09-20T00:37:55.061Z,81.02
2022-09-20T00:38:26.907Z,81.02
2022-09-20T00:39:02.460Z,80.57
2022-09-20T00:39:34.500Z,80.17
2022-09-20T00:40:10.446Z,79.94
2022-09-20T00:40:44.669Z,79.84
2022-09-20T00:41:16.639Z,79.72
2022-09-20T00:41:50.187Z,79.83
2022-09-20T00:42:28.157Z,80.14
2022-09-20T00:43:00.102Z,80.24
2022-09-20T00:43:41.045Z,79.84
2022-09-20T00:44:48.043Z,79.77
2022-09-20T00:45:31.048Z,79.58
2022-09-20T00:46:04.087Z,79.55
2022-09-20T00:46:43.469Z,79.60
2022-09-20T00:47:44.758Z,79.32
2022-09-20T00:48:28.403Z,79.21
2022-09-20T00:49:25.629Z,79.12
2022-09-20T00:50:30.566Z,78.72
2022-09-20T00:51:09.012Z,79.17
2022-09-20T00:51:46.013Z,78.95
2022-09-20T00:52:20.564Z,78.73
2022-09-20T00:53:08.448Z,78.69
2022-09-20T00:53:45.469Z,78.94
2022-09-20T00:54:20.854Z,78.87
2022-09-20T00:54:56.487Z,79.20
2022-09-20T00:55:30.480Z,79.30
2022-09-20T00:56:22.269Z,79.08
2022-09-20T00:56:54.215Z,78.67
2022-09-20T00:57:26.493Z,78.59
2022-09-20T00:58:00.295Z,78.36
2022-09-20T00:58:37.119Z,78.86
2022-09-20T00:59:18.049Z,78.46
2022-09-20T00:59:53.050Z,78.20
2022-09-20T01:00:27.461Z,78.28
2022-09-20T01:00:59.971Z,78.27
2022-09-20T01:01:32.682Z,77.94
2022-09-20T01:02:25.575Z,78.37
2022-09-20T01:03:01.547Z,78.51
2022-09-20T01:03:36.603Z,78.51
2022-09-20T01:04:12.260Z,78.68
2022-09-20T01:04:49.231Z,78.67
2022-09-20T01:05:22.049Z,78.55
2022-09-20T01:05:57.115Z,78.43
2022-09-20T01:06:32.894Z,78.29
2022-09-20T01:07:08.123Z,78.47
2022-09-20T01:07:43.007Z,78.49
2022-09-20T01:08:15.626Z,78.70
2022-09-20T01:08:52.116Z,78.78
2022-09-20T01:09:25.164Z,79.09
2022-09-20T01:09:58.301Z,78.93
2022-09-20T01:10:31.759Z,79.04
2022-09-20T01:11:04.097Z,79.16
2022-09-20T01:11:37.598Z,78.89
2022-09-20T01:12:18.238Z,78.55
2022-09-20T01:12:53.136Z,78.63
2022-09-20T01:13:25.098Z,78.33
2022-09-20T01:13:57.936Z,78.43
2022-09-20T01:14:30.491Z,78.16
2022-09-20T01:15:07.778Z,78.35
2022-09-20T01:15:40.544Z,78.45
2022-09-20T01:16:16.028Z,78.48
2022-09-20T01:16:48.608Z,78.62
2022-09-20T01:17:23.958Z,78.56
2022-09-20T01:17:58.391Z,78.24
2022-09-20T01:18:33.274Z,78.12
2022-09-20T01:19:33.053Z,77.88
2022-09-20T01:20:16.237Z,77.98
2022-09-20T01:20:49.288Z,77.91
2022-09-20T01:21:21.593Z,78.06
2022-09-20T01:21:54.125Z,78.06
2022-09-20T01:22:41.660Z,78.62
2022-09-20T01:23:28.647Z,78.55
2022-09-20T01:24:03.175Z,78.36
2022-09-20T01:25:03.190Z,78.65
2022-09-20T01:25:44.083Z,78.72
2022-09-20T01:26:40.049Z,78.06
2022-09-20T01:27:29.323Z,78.08
2022-09-20T01:28:01.245Z,78.06
2022-09-20T01:28:34.169Z,77.75
2022-09-20T01:29:33.913Z,77.85
2022-09-20T01:30:18.667Z,77.82
2022-09-20T01:30:50.468Z,77.88
2022-09-20T01:31:40.917Z,77.84
2022-09-20T01:32:23.690Z,77.87
2022-09-20T01:33:12.108Z,77.43
2022-09-20T01:33:54.018Z,77.15
2022-09-20T01:34:58.255Z,77.22
2022-09-20T01:35:34.419Z,77.57
2022-09-20T01:36:07.645Z,77.80
2022-09-20T01:36:48.740Z,77.90
2022-09-20T01:37:28.130Z,77.99
2022-09-20T01:38:17.691Z,77.95
2022-09-20T01:39:28.356Z,78.06
2022-09-20T01:40:20.779Z,77.92
2022-09-20T01:40:59.623Z,78.29
2022-09-20T01:41:48.793Z,78.13
2022-09-20T01:42:30.946Z,77.96
2022-09-20T01:43:16.452Z,78.16
2022-09-20T01:44:17.754Z,78.41
2022-09-20T01:44:58.438Z,78.67
2022-09-20T01:45:32.775Z,78.76
2022-09-20T01:46:17.079Z,78.44
2022-09-20T01:47:00.127Z,78.41
2022-09-20T01:47:44.208Z,78.44
2022-09-20T01:48:33.962Z,78.42
2022-09-20T01:49:14.007Z,78.39
2022-09-20T01:50:08.015Z,78.13
2022-09-20T01:51:07.992Z,78.49
2022-09-20T01:52:10.890Z,78.57
2022-09-20T01:53:10.901Z,78.82
2022-09-20T01:54:23.847Z,78.94
2022-09-20T01:55:02.026Z,78.70
2022-09-20T01:56:04.743Z,78.30
2022-09-20T01:57:01.712Z,78.47
2022-09-20T01:57:57.271Z,78.65
2022-09-20T01:59:22.085Z,78.92
2022-09-20T02:00:08.307Z,78.82
2022-09-20T02:01:10.474Z,78.61
2022-09-20T02:01:54.371Z,78.49
2022-09-20T02:02:51.527Z,78.75
2022-09-20T02:03:41.793Z,78.70
2022-09-20T02:04:43.220Z,78.45
2022-09-20T02:05:17.936Z,78.47
2022-09-20T02:06:01.713Z,78.47
2022-09-20T02:07:12.210Z,78.50
2022-09-20T02:07:52.314Z,78.28
2022-09-20T02:08:53.336Z,78.43
2022-09-20T02:09:30.902Z,77.98
2022-09-20T02:10:08.531Z,78.23
2022-09-20T02:10:53.419Z,78.07
2022-09-20T02:11:59.289Z,78.32
2022-09-20T02:12:56.956Z,78.43
2022-09-20T02:13:45.826Z,78.27
2022-09-20T02:14:39.307Z,78.47
2022-09-20T02:15:44.424Z,78.30
2022-09-20T02:16:39.279Z,78.54
2022-09-20T02:17:20.245Z,78.74
2022-09-20T02:18:12.625Z,78.86
2022-09-20T02:19:25.005Z,79.03
2022-09-20T02:20:02.728Z,78.35
2022-09-20T02:21:16.067Z,78.43
2022-09-20T02:22:02.704Z,78.78
2022-09-20T02:23:03.893Z,78.60
2022-09-20T02:23:56.905Z,78.81
2022-09-20T02:24:50.912Z,78.83
2022-09-20T02:25:41.129Z,78.25
2022-09-20T02:26:33.577Z,78.43
2022-09-20T02:27:23.977Z,78.59
2022-09-20T02:28:11.797Z,78.77
2022-09-20T02:29:02.004Z,78.98
2022-09-20T02:30:08.025Z,78.63
2022-09-20T02:30:52.380Z,78.69
2022-09-20T02:31:52.219Z,78.68
2022-09-20T02:32:49.529Z,78.84
2022-09-20T02:33:34.415Z,79.24
2022-09-20T02:34:25.089Z,79.45
2022-09-20T02:35:35.401Z,79.01
2022-09-20T02:36:30.847Z,78.84
2022-09-20T02:37:21.537Z,78.91
2022-09-20T02:38:14.401Z,78.89
2022-09-20T02:39:03.028Z,78.72
2022-09-20T02:39:52.504Z,78.43
2022-09-20T02:41:06.744Z,78.53
2022-09-20T02:41:51.494Z,78.06
2022-09-20T02:42:33.387Z,77.91
2022-09-20T02:43:14.837Z,77.75
2022-09-20T02:44:08.568Z,77.60
2022-09-20T02:45:09.230Z,77.71
2022-09-20T02:45:44.212Z,77.95
2022-09-20T02:46:55.021Z,77.94
2022-09-20T02:47:34.411Z,77.61
2022-09-20T02:48:06.385Z,78.04
2022-09-20T02:49:08.628Z,78.29
2022-09-20T02:50:15.025Z,78.38
2022-09-20T02:50:59.836Z,78.64
2022-09-20T02:51:41.180Z,78.23
2022-09-20T02:52:25.173Z,78.02
2022-09-20T02:53:06.195Z,78.00
2022-09-20T02:54:01.127Z,77.80
2022-09-20T02:54:55.001Z,77.93
2022-09-20T02:56:05.086Z,78.03
2022-09-20T02:56:54.553Z,77.89
2022-09-20T02:57:29.229Z,77.75
2022-09-20T02:58:19.531Z,78.24
2022-09-20T02:59:10.118Z,78.30
2022-09-20T02:59:46.960Z,78.08
2022-09-20T03:00:30.283Z,77.83
2022-09-20T03:01:31.568Z,77.85
2022-09-20T03:02:41.552Z,78.13
2022-09-20T03:03:26.604Z,78.50
2022-09-20T03:04:25.819Z,78.83
2022-09-20T03:05:16.748Z,79.04
2022-09-20T03:05:57.314Z,79.43
2022-09-20T03:07:02.256Z,78.77
2022-09-20T03:07:43.827Z,78.60
2022-09-20T03:08:48.870Z,78.92
2022-09-20T03:09:35.720Z,79.23
2022-09-20T03:10:34.661Z,79.33
2022-09-20T03:11:47.636Z,79.49
2022-09-20T03:12:19.518Z,79.71
2022-09-20T03:13:12.459Z,80.76
2022-09-20T03:14:23.351Z,80.25
2022-09-20T03:15:35.758Z,79.72
2022-09-20T03:16:07.874Z,79.57
2022-09-20T03:17:09.261Z,79.54
2022-09-20T03:17:42.545Z,79.46
2022-09-20T03:18:29.509Z,78.77
2022-09-20T03:19:35.853Z,78.88
2022-09-20T03:20:19.555Z,78.93
2022-09-20T03:21:25.093Z,78.87
2022-09-20T03:22:14.680Z,78.51
2022-09-20T03:23:12.343Z,79.12
2022-09-20T03:24:05.564Z,79.36
2022-09-20T03:25:09.528Z,79.36
2022-09-20T03:25:47.119Z,79.08
2022-09-20T03:26:42.534Z,78.76
2022-09-20T03:27:29.786Z,79.03
2022-09-20T03:28:28.499Z,79.04
2022-09-20T03:29:33.022Z,79.37
2022-09-20T03:30:16.711Z,79.17
2022-09-20T03:30:58.785Z,79.05
2022-09-20T03:31:55.338Z,78.97
2022-09-20T03:33:06.183Z,78.81
2022-09-20T03:33:50.446Z,78.78
2022-09-20T03:34:48.601Z,79.57
2022-09-20T03:35:49.400Z,79.89
2022-09-20T03:37:06.040Z,79.69
2022-09-20T03:38:05.981Z,79.68
2022-09-20T03:39:12.302Z,79.45
2022-09-20T03:40:21.998Z,79.91
2022-09-20T03:41:22.131Z,80.35
2022-09-20T03:42:14.171Z,80.23
2022-09-20T03:43:04.644Z,79.87
2022-09-20T03:43:40.606Z,80.92
2022-09-20T03:44:37.828Z,81.00
2022-09-20T03:45:26.259Z,80.74
2022-09-20T03:46:27.003Z,81.19
2022-09-20T03:47:19.563Z,81.07
2022-09-20T03:48:01.134Z,81.04
2022-09-20T03:49:07.521Z,80.84
2022-09-20T03:50:13.202Z,81.06
2022-09-20T03:51:04.210Z,80.30
2022-09-20T03:51:57.217Z,80.79
2022-09-20T03:52:29.943Z,80.74
2022-09-20T03:53:13.916Z,80.55
2022-09-20T03:54:19.179Z,80.81
2022-09-20T03:55:15.803Z,81.76
2022-09-20T03:56:09.177Z,80.93
2022-09-20T03:57:11.004Z,80.93
2022-09-20T03:58:11.081Z,80.74
2022-09-20T03:58:57.839Z,80.44
2022-09-20T03:59:42.072Z,79.93
2022-09-20T04:00:22.744Z,80.36
2022-09-20T04:01:25.017Z,80.91
2022-09-20T04:02:34.203Z,81.04
2022-09-20T04:03:28.929Z,80.44
2022-09-20T04:04:14.348Z,80.87
2022-09-20T04:05:23.131Z,80.99
2022-09-20T04:06:36.896Z,80.95
2022-09-20T04:07:23.617Z,81.11
2022-09-20T04:08:21.457Z,80.95
2022-09-20T04:09:05.310Z,81.26
2022-09-20T04:09:52.553Z,80.95
2022-09-20T04:10:27.228Z,80.82
2022-09-20T04:11:19.983Z,80.73
2022-09-20T04:12:13.840Z,80.78
2022-09-20T04:12:51.692Z,80.59
2022-09-20T04:13:40.159Z,80.53
2022-09-20T04:14:49.944Z,80.28
2022-09-20T04:16:00.252Z,80.55
2022-09-20T04:16:32.463Z,80.60
2022-09-20T04:17:47.564Z,80.09
2022-09-20T04:18:43.839Z,80.31
2022-09-20T04:19:37.778Z,80.60
2022-09-20T04:20:20.746Z,80.82
2022-09-20T04:21:31.875Z,80.27
2022-09-20T04:22:07.473Z,80.47
2022-09-20T04:22:41.354Z,80.32
2022-09-20T04:23:29.888Z,80.38
2022-09-20T04:24:29.781Z,80.48
2022-09-20T04:25:17.501Z,80.17
2022-09-20T04:25:51.422Z,79.79
2022-09-20T04:26:30.065Z,79.50
2022-09-20T04:27:21.137Z,79.81
2022-09-20T04:28:09.688Z,81.23
2022-09-20T04:28:48.696Z,83.54
2022-09-20T04:29:23.142Z,81.89
2022-09-20T04:30:17.468Z,81.48
2022-09-20T04:30:55.406Z,81.12
2022-09-20T04:31:30.332Z,80.72
2022-09-20T04:32:24.235Z,80.36
2022-09-20T04:33:31.343Z,80.57
2022-09-20T04:34:09.069Z,81.50
2022-09-20T04:35:14.430Z,80.66
2022-09-20T04:36:11.127Z,80.28
2022-09-20T04:37:05.036Z,88.00
2022-09-20T04:37:38.441Z,83.19
2022-09-20T04:38:16.780Z,81.73
2022-09-20T04:38:57.908Z,80.38
2022-09-20T04:40:09.968Z,79.92
2022-09-20T04:41:03.996Z,79.67
2022-09-20T04:41:53.984Z,79.67
2022-09-20T04:43:13.558Z,79.89
2022-09-20T04:43:51.168Z,79.50
2022-09-20T04:44:38.081Z,79.57
2022-09-20T04:45:54.364Z,79.82
2022-09-20T04:46:55.827Z,79.62
2022-09-20T04:47:58.336Z,80.06
2022-09-20T04:48:42.534Z,79.78
2022-09-20T04:49:31.510Z,79.61
2022-09-20T04:50:12.623Z,79.55
2022-09-20T04:51:40.390Z,79.52
2022-09-20T04:52:30.456Z,79.62
2022-09-20T04:53:23.366Z,80.30
2022-09-20T04:54:25.507Z,81.06
2022-09-20T04:55:03.465Z,81.19
2022-09-20T04:55:59.095Z,81.03
2022-09-20T04:57:06.046Z,81.43
2022-09-20T04:57:53.936Z,81.79
2022-09-20T04:58:53.562Z,81.93
2022-09-20T04:59:28.863Z,81.73
2022-09-20T05:00:12.828Z,81.63
2022-09-20T05:01:16.939Z,81.46
2022-09-20T05:02:40.034Z,81.98
2022-09-20T05:03:42.619Z,82.28
2022-09-20T05:04:58.712Z,81.65
2022-09-20T05:05:36.787Z,80.59
2022-09-20T05:06:27.199Z,78.94
2022-09-20T05:07:36.649Z,76.39
2022-09-20T05:08:45.692Z,72.97
2022-09-20T05:09:29.448Z,70.37
2022-09-20T05:10:41.141Z,68.50
2022-09-20T05:11:30.582Z,68.34
2022-09-20T05:12:29.750Z,68.92
2022-09-20T05:13:22.114Z,67.94
2022-09-20T05:14:13.035Z,65.93
2022-09-20T05:15:08.200Z,62.73
2022-09-20T05:16:02.354Z,60.24
2022-09-20T05:16:58.208Z,60.68
2022-09-20T05:17:44.797Z,63.59
2022-09-20T05:18:35.121Z,66.02
2022-09-20T05:19:13.157Z,66.88
2022-09-20T05:20:01.545Z,67.50
2022-09-20T05:20:45.747Z,68.03
2022-09-20T05:22:02.028Z,68.69
2022-09-20T05:22:58.754Z,69.83
2022-09-20T05:24:03.023Z,71.33
2022-09-20T05:24:52.602Z,71.35
2022-09-20T05:25:42.921Z,70.55
2022-09-20T05:26:36.122Z,71.09
2022-09-20T05:27:11.278Z,71.69
2022-09-20T05:28:07.391Z,72.13
2022-09-20T05:29:10.156Z,71.06
2022-09-20T05:30:04.984Z,71.03
2022-09-20T05:30:45.550Z,72.16
2022-09-20T05:31:30.898Z,70.87
2022-09-20T05:32:18.459Z,70.54
2022-09-20T05:33:00.148Z,69.53
2022-09-20T05:34:03.428Z,69.40
2022-09-20T05:34:42.476Z,69.14
2022-09-20T05:35:32.732Z,69.69
2022-09-20T05:36:23.631Z,70.74
2022-09-20T05:37:09.113Z,71.83
2022-09-20T05:37:51.991Z,71.82
2022-09-20T05:39:34.362Z,71.73
2022-09-20T05:40:24.798Z,72.02
2022-09-20T05:41:34.073Z,71.08
2022-09-20T05:42:30.108Z,70.59
2022-09-20T05:43:16.758Z,72.99
2022-09-20T05:43:57.700Z,70.99
2022-09-20T05:45:00.710Z,70.18
2022-09-20T05:45:35.591Z,69.13
2022-09-20T05:46:41.064Z,67.33
2022-09-20T05:47:40.300Z,67.81
2022-09-20T05:48:18.213Z,67.12
2022-09-20T05:49:18.244Z,68.68
2022-09-20T05:50:27.303Z,68.55
2022-09-20T05:51:45.768Z,68.39
2022-09-20T05:52:43.119Z,66.87
2022-09-20T05:53:36.397Z,67.32
2022-09-20T05:54:27.209Z,66.97
2022-09-20T05:55:40.160Z,66.70
2022-09-20T05:56:36.440Z,65.57
2022-09-20T05:57:56.534Z,65.23
2022-09-20T05:58:46.134Z,64.54
2022-09-20T05:59:42.868Z,64.44
2022-09-20T06:00:24.577Z,63.88
2022-09-20T06:01:27.035Z,63.65
2022-09-20T06:02:36.710Z,64.15
2022-09-20T06:03:17.493Z,64.05
2022-09-20T06:03:55.713Z,63.78
2022-09-20T06:04:42.145Z,63.95
2022-09-20T06:05:22.878Z,63.44
2022-09-20T06:06:03.831Z,63.66
2022-09-20T06:06:57.608Z,62.83
2022-09-20T06:07:56.892Z,62.13
2022-09-20T06:08:35.832Z,62.26
2022-09-20T06:09:22.799Z,63.39
2022-09-20T06:10:15.283Z,63.59
2022-09-20T06:11:12.335Z,62.29
2022-09-20T06:11:47.140Z,62.27
2022-09-20T06:12:52.524Z,62.05
2022-09-20T06:13:33.080Z,61.97
2022-09-20T06:14:36.611Z,63.62
2022-09-20T06:15:45.247Z,63.22
2022-09-20T06:16:39.702Z,62.61
2022-09-20T06:17:24.339Z,62.29
2022-09-20T06:18:04.905Z,63.10
2022-09-20T06:18:43.040Z,63.19
2022-09-20T06:19:23.673Z,63.33
2022-09-20T06:20:19.880Z,63.19
2022-09-20T06:21:19.584Z,62.97
2022-09-20T06:21:52.761Z,63.13
2022-09-20T06:22:31.215Z,62.73
2022-09-20T06:23:05.541Z,63.17
2022-09-20T06:23:37.575Z,64.10
2022-09-20T06:24:37.957Z,63.98
2022-09-20T06:25:09.709Z,63.50
2022-09-20T06:26:02.046Z,63.27
2022-09-20T06:26:37.174Z,62.92
2022-09-20T06:27:24.380Z,63.34
2022-09-20T06:27:59.021Z,64.18
2022-09-20T06:28:35.131Z,64.01
2022-09-20T06:29:13.199Z,63.54
2022-09-20T06:29:52.403Z,62.99
2022-09-20T06:30:34.941Z,62.86
2022-09-20T06:31:10.195Z,62.87
2022-09-20T06:31:42.085Z,62.97
2022-09-20T06:32:17.536Z,62.90
2022-09-20T06:32:59.118Z,62.86
2022-09-20T06:33:31.358Z,62.78
2022-09-20T06:34:10.500Z,62.52
2022-09-20T06:34:42.348Z,61.99
2022-09-20T06:35:14.309Z,61.92
2022-09-20T06:36:24.383Z,62.09
2022-09-20T06:38:13.629Z,62.57
2022-09-20T06:39:32.432Z,62.68
2022-09-20T06:40:28.611Z,61.76
2022-09-20T06:41:20.783Z,60.66
2022-09-20T06:41:53.611Z,60.47
2022-09-20T06:42:27.339Z,59.83
2022-09-20T06:43:00.799Z,59.80
2022-09-20T06:43:32.707Z,59.94
2022-09-20T06:44:06.446Z,59.44
2022-09-20T06:44:43.281Z,59.99
2022-09-20T06:45:15.174Z,60.29
2022-09-20T06:45:48.402Z,59.86
2022-09-20T06:46:20.871Z,60.82
2022-09-20T06:46:55.765Z,60.40
2022-09-20T06:47:27.606Z,61.01
2022-09-20T06:48:02.280Z,60.91
2022-09-20T06:48:34.441Z,60.89
2022-09-20T06:49:09.559Z,60.50
2022-09-20T06:49:42.418Z,60.16
2022-09-20T06:50:17.327Z,60.59
2022-09-20T06:50:50.024Z,60.54
2022-09-20T06:51:23.659Z,60.23
2022-09-20T06:51:55.873Z,60.20
2022-09-20T06:52:28.173Z,60.04
2022-09-20T06:53:00.229Z,59.55
2022-09-20T06:53:35.332Z,59.55
2022-09-20T06:54:12.279Z,59.05
2022-09-20T06:54:50.218Z,58.88
2022-09-20T06:55:30.330Z,59.14
2022-09-20T06:56:02.589Z,58.71
2022-09-20T06:56:36.807Z,58.73
2022-09-20T06:57:10.517Z,58.86
2022-09-20T06:57:42.441Z,57.88
2022-09-20T06:58:14.998Z,57.59
2022-09-20T06:58:47.120Z,57.40
2022-09-20T06:59:19.272Z,57.51
2022-09-20T06:59:51.110Z,57.70
2022-09-20T07:00:23.243Z,57.57
2022-09-20T07:00:55.521Z,57.12
2022-09-20T07:01:30.430Z,57.01
2022-09-20T07:02:02.746Z,56.93
2022-09-20T07:02:34.663Z,56.82
2022-09-20T07:03:07.137Z,56.86
2022-09-20T07:03:39.348Z,57.20
2022-09-20T07:04:11.199Z,57.11
2022-09-20T07:04:44.630Z,56.61
2022-09-20T07:05:18.101Z,56.56
2022-09-20T07:05:50.137Z,56.77
2022-09-20T07:06:21.983Z,56.65
2022-09-20T07:07:02.121Z,56.62
2022-09-20T07:07:36.000Z,56.69
2022-09-20T07:08:07.971Z,56.33
2022-09-20T07:08:39.803Z,56.40
2022-09-20T07:09:11.702Z,55.64
2022-09-20T07:09:43.863Z,55.63
2022-09-20T07:10:16.108Z,55.79
2022-09-20T07:10:48.202Z,55.37
2022-09-20T07:11:20.381Z,55.81
2022-09-20T07:11:52.212Z,55.87
2022-09-20T07:12:24.731Z,55.78
2022-09-20T07:13:01.810Z,55.85
2022-09-20T07:13:34.173Z,55.37
2022-09-20T07:14:07.497Z,54.87
2022-09-20T07:14:40.025Z,54.73
2022-09-20T07:15:12.172Z,54.37
2022-09-20T07:15:44.306Z,53.77
2022-09-20T07:16:16.566Z,53.69
2022-09-20T07:16:48.501Z,53.72
2022-09-20T07:17:22.117Z,53.33
2022-09-20T07:17:54.088Z,53.28
2022-09-20T07:18:25.928Z,53.11
2022-09-20T07:18:57.860Z,52.96
2022-09-20T07:19:29.811Z,52.64
2022-09-20T07:20:01.930Z,52.58
2022-09-20T07:20:35.105Z,53.12
2022-09-20T07:21:17.599Z,53.38
2022-09-20T07:21:49.501Z,53.55
2022-09-20T07:22:21.328Z,53.49
2022-09-20T07:22:53.704Z,53.06
2022-09-20T07:23:27.212Z,53.61
2022-09-20T07:23:59.050Z,53.81
2022-09-20T07:24:33.690Z,52.70
2022-09-20T07:25:06.003Z,52.47
2022-09-20T07:25:38.349Z,52.74
2022-09-20T07:26:20.943Z,53.04
2022-09-20T07:27:01.485Z,52.87
2022-09-20T07:27:33.352Z,53.54
2022-09-20T07:28:05.220Z,53.87
2022-09-20T07:28:37.101Z,55.78
2022-09-20T07:29:09.617Z,54.82
2022-09-20T07:29:41.499Z,53.81
2022-09-20T07:30:14.713Z,53.87
2022-09-20T07:30:47.797Z,53.76
2022-09-20T07:31:22.899Z,54.64
2022-09-20T07:31:56.144Z,53.93
2022-09-20T07:32:28.145Z,54.14
2022-09-20T07:33:00.660Z,54.49
2022-09-20T07:33:32.695Z,54.44
2022-09-20T07:34:04.547Z,53.86
2022-09-20T07:34:36.440Z,53.36
2022-09-20T07:35:10.090Z,53.46
2022-09-20T07:35:41.908Z,53.35
2022-09-20T07:36:15.118Z,52.50
2022-09-20T07:36:48.007Z,52.07
2022-09-20T07:37:20.226Z,52.28
2022-09-20T07:37:57.881Z,52.45
2022-09-20T07:38:29.719Z,52.99
2022-09-20T07:39:01.593Z,52.56
2022-09-20T07:39:33.427Z,52.57
2022-09-20T07:40:05.773Z,51.64
2022-09-20T07:40:37.693Z,51.39
2022-09-20T07:41:10.643Z,51.50
2022-09-20T07:41:46.600Z,51.72
2022-09-20T07:42:18.444Z,52.23
2022-09-20T07:42:54.219Z,52.08
2022-09-20T07:43:30.246Z,52.30
2022-09-20T07:44:20.924Z,52.09
2022-09-20T07:44:53.194Z,52.73
2022-09-20T07:45:25.597Z,53.28
2022-09-20T07:45:59.358Z,52.77
2022-09-20T07:46:36.144Z,52.40
2022-09-20T07:47:14.053Z,53.32
2022-09-20T07:47:46.680Z,52.29
2022-09-20T07:48:18.564Z,52.01
2022-09-20T07:48:50.392Z,51.94
2022-09-20T07:49:22.603Z,52.02
2022-09-20T07:49:55.410Z,51.78
2022-09-20T07:50:27.285Z,51.58
2022-09-20T07:51:05.720Z,51.79
2022-09-20T07:51:40.351Z,51.33
2022-09-20T07:52:14.664Z,50.80
2022-09-20T07:52:46.698Z,50.20
2022-09-20T07:53:18.822Z,50.79
2022-09-20T07:53:54.597Z,50.59
2022-09-20T07:54:27.588Z,50.96
2022-09-20T07:54:59.407Z,50.44
2022-09-20T07:55:31.316Z,50.46
2022-09-20T07:56:21.364Z,50.78
2022-09-20T07:56:53.507Z,51.05
2022-09-20T07:57:25.655Z,50.17
2022-09-20T07:57:57.695Z,50.20
2022-09-20T07:58:30.982Z,50.07
2022-09-20T07:59:02.861Z,49.76
2022-09-20T07:59:34.830Z,49.40
2022-09-20T08:00:08.397Z,48.53
2022-09-20T08:00:44.114Z,49.54
2022-09-20T08:01:16.361Z,50.47
2022-09-20T08:01:48.396Z,50.21
2022-09-20T08:02:20.451Z,49.82
2022-09-20T08:03:03.138Z,49.15
2022-09-20T08:03:35.546Z,49.59
2022-09-20T08:04:08.900Z,49.49
2022-09-20T08:04:40.773Z,49.42
2022-09-20T08:05:12.895Z,49.41
2022-09-20T08:05:44.794Z,49.57
2022-09-20T08:06:18.496Z,49.98
2022-09-20T08:06:50.364Z,49.19
2022-09-20T08:07:22.266Z,48.70
2022-09-20T08:07:55.314Z,48.76
2022-09-20T08:08:29.052Z,48.92
2022-09-20T08:09:01.003Z,49.04
2022-09-20T08:09:32.854Z,50.34
2022-09-20T08:10:05.662Z,49.91
2022-09-20T08:10:41.305Z,49.81
2022-09-20T08:11:18.923Z,49.75
2022-09-20T08:11:51.283Z,50.25
2022-09-20T08:14:12.884Z,51.23
2022-09-20T08:14:44.737Z,50.39
2022-09-20T08:15:16.726Z,49.79
2022-09-20T08:15:48.863Z,49.79
2022-09-20T08:16:21.733Z,50.16
2022-09-20T08:16:56.252Z,50.13
2022-09-20T08:17:28.512Z,50.48
2022-09-20T08:18:00.479Z,51.28
2022-09-20T08:18:34.411Z,50.70
2022-09-20T08:19:06.418Z,50.09
2022-09-20T08:19:40.073Z,50.43
2022-09-20T08:20:11.977Z,50.36
2022-09-20T08:20:43.839Z,50.45
2022-09-20T08:21:15.973Z,51.23
2022-09-20T08:21:48.272Z,50.74
2022-09-20T08:22:20.447Z,50.31
2022-09-20T08:23:12.936Z,50.36
2022-09-20T08:23:48.333Z,50.79
2022-09-20T08:24:20.402Z,50.22
2022-09-20T08:24:52.298Z,49.82
2022-09-20T08:25:24.165Z,49.97
2022-09-20T08:25:57.349Z,50.23
2022-09-20T08:26:31.115Z,50.12
2022-09-20T08:27:03.107Z,50.52
2022-09-20T08:27:35.234Z,51.07
2022-09-20T08:28:07.088Z,51.27
2022-09-20T08:28:39.932Z,51.36
2022-09-20T08:29:13.416Z,51.67
2022-09-20T08:29:45.245Z,51.50
2022-09-20T08:30:17.361Z,50.75
2022-09-20T08:30:49.191Z,50.65
2022-09-20T08:31:24.286Z,50.34
2022-09-20T08:31:58.307Z,49.33
2022-09-20T08:32:30.204Z,49.86
2022-09-20T08:33:04.287Z,50.19
2022-09-20T08:33:38.033Z,49.98
2022-09-20T08:34:12.850Z,50.58
2022-09-20T08:34:49.197Z,50.46
2022-09-20T08:35:22.602Z,49.28
2022-09-20T08:35:57.726Z,48.91
2022-09-20T08:36:36.075Z,48.42
2022-09-20T08:37:08.645Z,48.55
2022-09-20T08:37:43.563Z,48.04
2022-09-20T08:40:00.382Z,47.25
2022-09-20T08:40:32.445Z,47.82
2022-09-20T08:41:15.590Z,47.24
2022-09-20T08:41:57.065Z,47.80
2022-09-20T08:42:36.766Z,47.69
2022-09-20T08:43:12.029Z,47.12
2022-09-20T08:43:56.216Z,47.24
2022-09-20T08:44:35.227Z,46.81
2022-09-20T08:45:22.220Z,47.15
2022-09-20T08:45:58.154Z,48.03
2022-09-20T08:46:35.510Z,47.92
2022-09-20T08:47:22.632Z,46.31
2022-09-20T08:47:59.496Z,45.69
2022-09-20T08:48:33.904Z,45.96
2022-09-20T08:49:10.863Z,46.04
2022-09-20T08:49:46.037Z,46.00
2022-09-20T08:50:18.463Z,46.61
2022-09-20T08:50:50.295Z,47.43
2022-09-20T08:51:23.533Z,48.34
2022-09-20T08:51:58.119Z,48.49
2022-09-20T08:52:37.436Z,49.16
2022-09-20T08:53:14.867Z,49.52
2022-09-20T08:53:52.567Z,48.36
2022-09-20T08:54:32.851Z,47.89
2022-09-20T08:55:17.550Z,48.25
2022-09-20T08:55:49.441Z,48.26
2022-09-20T08:56:22.810Z,47.58
2022-09-20T08:56:55.020Z,47.68
2022-09-20T08:57:33.747Z,47.96
2022-09-20T08:58:08.738Z,48.44
2022-09-20T08:58:40.999Z,48.26
2022-09-20T08:59:21.026Z,47.53
2022-09-20T08:59:53.192Z,47.69
2022-09-20T09:00:32.454Z,47.68
2022-09-20T09:01:04.389Z,49.09
2022-09-20T09:01:36.706Z,49.88
2022-09-20T09:02:20.826Z,49.94
2022-09-20T09:02:56.529Z,49.81
2022-09-20T09:03:28.446Z,49.44
2022-09-20T09:04:24.120Z,48.92
2022-09-20T09:04:56.391Z,49.41
2022-09-20T09:05:33.725Z,48.99
2022-09-20T09:06:11.206Z,48.72
2022-09-20T09:06:47.706Z,48.36
2022-09-20T09:07:21.921Z,47.30
2022-09-20T09:07:53.900Z,47.07
2022-09-20T09:08:38.316Z,47.70
2022-09-20T09:09:21.024Z,46.78
2022-09-20T09:09:55.334Z,46.51
2022-09-20T09:10:45.099Z,44.96
2022-09-20T09:11:18.768Z,46.17
2022-09-20T09:11:52.204Z,47.05
2022-09-20T09:12:25.527Z,46.18
2022-09-20T09:12:59.629Z,46.05
2022-09-20T09:13:53.705Z,46.73
2022-09-20T09:14:47.437Z,47.19
2022-09-20T09:15:29.307Z,46.68
2022-09-20T09:16:10.100Z,46.53
2022-09-20T09:16:42.189Z,46.86
2022-09-20T09:17:17.503Z,47.14